Middleport, NY (14105)

4:26 AM EDT on August 25, 2016 (GMT -0400)
Aves-Apis | | Change Station

Elev 427 ft 43.24 °N, 78.49 °W | Updated 2 seconds ago

Heavy Rain
Heavy Rain Mist
71.2 °F
Feels Like 70 °F
N
0.0
Wind Variable Wind from North
Gusts 3.0 mph

Today
High -- | Low -- °F
--% Chance of Precip.
Yesterday
High -- | Low -- °F
Precip. -- in
Pressure 29.96 in
Visibility 2.0 miles
Clouds Scattered Clouds 2100 ft
Mostly Cloudy 3200 ft
Overcast 5500 ft
Heat Index 70 °F
Dew Point 67 °F
Humidity 85%
Rainfall 0.15 in
Snow Depth Not available.
6:31 AM 7:59 PM
Waning Gibbous, 48% visible
SPECI KBUF 250817Z 24010KT 2SM +RA BR SCT021 BKN032 OVC055 22/21 A2996 RMK AO2 P0053 T02170206
Pressure 29.96 in
Visibility 2.0 miles
Clouds Scattered Clouds 2100 ft
Mostly Cloudy 3200 ft
Overcast 5500 ft
Heat Index 70 °F
Dew Point 67 °F
Humidity 85%
Rainfall 0.15 in
Snow Depth Not available.
6:31 AM 7:59 PM
Waning Gibbous, 48% visible
SPECI KBUF 250817Z 24010KT 2SM +RA BR SCT021 BKN032 OVC055 22/21 A2996 RMK AO2 P0053 T02170206

10-Day Weather Forecast

Almanac

Astronomy

Aug. 25, 2016 Rise Set
Actual Time
Civil Twilight
Nautical Twilight
Astronomical Twilight
Moon
Length of Visible Light
Length of Day
Tomorrow will be .
, % of the Moon is Illuminated

Today's Extremes

State Highs State Lows

Community

WunderPhotos

Upload Photos

1,934,814 photos uploaded!

WunderBlog® & News

Nearby

Air Quality

  Air Quality AQ Index Pollutant
Not available.

Snow Depth

Station Depth Elevation

Earthquake Activity

City Distance Mag. Time & Date
Minimum magnitude displayed is 2.5.

Coastal Water Temperatures

Place Temperature

Stations

Nearby Weather Stations

Station Location Temp. Windchill Dew Point Humidity Wind Precip. Elev Updated Type
                   

Watches & Warnings

There are currently no watches in effect.